sensor_id;sensor_type;location;lat;lon;timestamp;P1;durP1;ratioP1;P2;durP2;ratioP2
65033;SDS011;51601;51.356;12.458;2023-02-15T00:03:53;43.47;;;15.38;;
65033;SDS011;51601;51.356;12.458;2023-02-15T00:08:17;53.88;;;19.88;;
65033;SDS011;51601;51.356;12.458;2023-02-15T00:12:41;64.90;;;24.52;;
65033;SDS011;51601;51.356;12.458;2023-02-15T00:17:06;59.33;;;22.43;;
65033;SDS011;51601;51.356;12.458;2023-02-15T00:21:32;64.05;;;23.85;;
65033;SDS011;51601;51.356;12.458;2023-02-15T00:26:05;52.47;;;18.83;;
65033;SDS011;51601;51.356;12.458;2023-02-15T00:30:30;44.13;;;17.93;;
65033;SDS011;51601;51.356;12.458;2023-02-15T00:34:55;59.60;;;22.27;;
65033;SDS011;51601;51.356;12.458;2023-02-15T00:39:20;63.10;;;23.10;;
65033;SDS011;51601;51.356;12.458;2023-02-15T00:43:45;50.57;;;17.37;;
65033;SDS011;51601;51.356;12.458;2023-02-15T00:48:09;46.88;;;18.33;;
65033;SDS011;51601;51.356;12.458;2023-02-15T00:52:33;64.70;;;23.63;;
65033;SDS011;51601;51.356;12.458;2023-02-15T00:56:59;65.50;;;22.92;;
65033;SDS011;51601;51.356;12.458;2023-02-15T01:01:23;59.67;;;21.43;;
65033;SDS011;51601;51.356;12.458;2023-02-15T01:05:48;69.03;;;22.98;;
65033;SDS011;51601;51.356;12.458;2023-02-15T01:10:13;38.15;;;13.73;;
65033;SDS011;51601;51.356;12.458;2023-02-15T01:14:38;26.13;;;12.60;;
65033;SDS011;51601;51.356;12.458;2023-02-15T01:19:03;34.63;;;14.48;;
65033;SDS011;51601;51.356;12.458;2023-02-15T01:23:28;53.05;;;20.67;;
65033;SDS011;51601;51.356;12.458;2023-02-15T01:27:52;21.67;;;9.90;;
65033;SDS011;51601;51.356;12.458;2023-02-15T01:32:17;56.15;;;21.35;;
65033;SDS011;51601;51.356;12.458;2023-02-15T01:36:41;59.70;;;23.08;;
65033;SDS011;51601;51.356;12.458;2023-02-15T01:41:05;44.45;;;17.15;;
65033;SDS011;51601;51.356;12.458;2023-02-15T01:45:46;56.23;;;21.93;;
65033;SDS011;51601;51.356;12.458;2023-02-15T01:50:14;53.70;;;20.90;;
65033;SDS011;51601;51.356;12.458;2023-02-15T01:54:41;54.22;;;21.30;;
65033;SDS011;51601;51.356;12.458;2023-02-15T01:59:09;57.53;;;21.23;;
65033;SDS011;51601;51.356;12.458;2023-02-15T02:03:38;60.20;;;21.60;;
65033;SDS011;51601;51.356;12.458;2023-02-15T02:08:38;60.80;;;21.38;;
65033;SDS011;51601;51.356;12.458;2023-02-15T02:13:31;51.30;;;19.80;;
65033;SDS011;51601;51.356;12.458;2023-02-15T02:18:29;60.08;;;22.17;;
65033;SDS011;51601;51.356;12.458;2023-02-15T02:23:41;63.08;;;22.00;;
65033;SDS011;51601;51.356;12.458;2023-02-15T02:29:11;65.15;;;22.20;;
65033;SDS011;51601;51.356;12.458;2023-02-15T02:34:25;61.70;;;21.80;;
65033;SDS011;51601;51.356;12.458;2023-02-15T02:39:22;53.75;;;19.90;;
65033;SDS011;51601;51.356;12.458;2023-02-15T02:44:20;51.50;;;18.40;;
65033;SDS011;51601;51.356;12.458;2023-02-15T02:49:29;51.00;;;20.50;;
65033;SDS011;51601;51.356;12.458;2023-02-15T02:54:21;47.53;;;17.98;;
65033;SDS011;51601;51.356;12.458;2023-02-15T02:59:13;43.67;;;17.20;;
65033;SDS011;51601;51.356;12.458;2023-02-15T03:04:09;39.87;;;16.33;;
65033;SDS011;51601;51.356;12.458;2023-02-15T03:09:08;43.35;;;16.67;;
65033;SDS011;51601;51.356;12.458;2023-02-15T03:14:04;26.88;;;11.98;;
65033;SDS011;51601;51.356;12.458;2023-02-15T03:18:57;35.22;;;15.25;;
65033;SDS011;51601;51.356;12.458;2023-02-15T03:23:54;41.90;;;15.97;;
65033;SDS011;51601;51.356;12.458;2023-02-15T03:28:54;30.13;;;12.38;;
65033;SDS011;51601;51.356;12.458;2023-02-15T03:33:50;35.92;;;15.45;;
65033;SDS011;51601;51.356;12.458;2023-02-15T03:38:46;24.27;;;10.00;;
65033;SDS011;51601;51.356;12.458;2023-02-15T03:43:45;19.50;;;9.23;;
65033;SDS011;51601;51.356;12.458;2023-02-15T03:48:43;28.80;;;11.95;;
65033;SDS011;51601;51.356;12.458;2023-02-15T03:53:40;27.10;;;12.30;;
65033;SDS011;51601;51.356;12.458;2023-02-15T03:58:32;28.58;;;11.82;;
65033;SDS011;51601;51.356;12.458;2023-02-15T04:03:43;24.25;;;10.30;;
65033;SDS011;51601;51.356;12.458;2023-02-15T04:08:38;22.20;;;10.70;;
65033;SDS011;51601;51.356;12.458;2023-02-15T04:13:47;25.77;;;10.07;;
65033;SDS011;51601;51.356;12.458;2023-02-15T04:18:47;36.00;;;14.77;;
65033;SDS011;51601;51.356;12.458;2023-02-15T04:23:56;28.30;;;12.27;;
65033;SDS011;51601;51.356;12.458;2023-02-15T04:29:05;12.20;;;6.70;;
65033;SDS011;51601;51.356;12.458;2023-02-15T04:33:57;28.83;;;14.10;;
65033;SDS011;51601;51.356;12.458;2023-02-15T04:38:48;21.45;;;8.07;;
65033;SDS011;51601;51.356;12.458;2023-02-15T04:43:39;28.17;;;11.03;;
65033;SDS011;51601;51.356;12.458;2023-02-15T04:48:30;22.33;;;9.63;;
65033;SDS011;51601;51.356;12.458;2023-02-15T04:53:22;20.23;;;9.38;;
65033;SDS011;51601;51.356;12.458;2023-02-15T04:58:13;37.90;;;14.88;;
65033;SDS011;51601;51.356;12.458;2023-02-15T05:03:04;27.87;;;12.40;;
65033;SDS011;51601;51.356;12.458;2023-02-15T05:07:55;26.33;;;11.40;;
65033;SDS011;51601;51.356;12.458;2023-02-15T05:12:48;24.20;;;10.30;;
65033;SDS011;51601;51.356;12.458;2023-02-15T05:17:40;25.60;;;10.07;;
65033;SDS011;51601;51.356;12.458;2023-02-15T05:22:31;30.70;;;12.90;;
65033;SDS011;51601;51.356;12.458;2023-02-15T05:27:21;34.03;;;14.80;;
65033;SDS011;51601;51.356;12.458;2023-02-15T05:32:31;35.13;;;13.53;;
65033;SDS011;51601;51.356;12.458;2023-02-15T05:37:22;15.75;;;8.25;;
65033;SDS011;51601;51.356;12.458;2023-02-15T05:42:13;30.13;;;13.73;;
65033;SDS011;51601;51.356;12.458;2023-02-15T05:47:04;28.77;;;12.15;;
65033;SDS011;51601;51.356;12.458;2023-02-15T05:51:58;21.60;;;10.20;;
65033;SDS011;51601;51.356;12.458;2023-02-15T05:56:49;31.40;;;14.07;;
65033;SDS011;51601;51.356;12.458;2023-02-15T06:01:40;16.98;;;6.72;;
65033;SDS011;51601;51.356;12.458;2023-02-15T06:06:31;17.83;;;7.43;;
65033;SDS011;51601;51.356;12.458;2023-02-15T06:11:25;13.93;;;6.13;;
65033;SDS011;51601;51.356;12.458;2023-02-15T06:16:16;14.50;;;6.97;;
65033;SDS011;51601;51.356;12.458;2023-02-15T06:21:07;16.37;;;8.47;;
65033;SDS011;51601;51.356;12.458;2023-02-15T06:25:58;12.48;;;6.28;;
65033;SDS011;51601;51.356;12.458;2023-02-15T06:30:51;16.30;;;8.98;;
65033;SDS011;51601;51.356;12.458;2023-02-15T06:35:43;9.73;;;5.00;;
65033;SDS011;51601;51.356;12.458;2023-02-15T06:40:35;13.77;;;7.37;;
65033;SDS011;51601;51.356;12.458;2023-02-15T06:45:26;14.48;;;6.15;;
65033;SDS011;51601;51.356;12.458;2023-02-15T06:50:18;8.82;;;4.28;;
65033;SDS011;51601;51.356;12.458;2023-02-15T06:55:09;20.17;;;8.23;;
65033;SDS011;51601;51.356;12.458;2023-02-15T07:00:00;13.23;;;7.03;;
65033;SDS011;51601;51.356;12.458;2023-02-15T07:04:54;15.32;;;6.60;;
65033;SDS011;51601;51.356;12.458;2023-02-15T07:09:46;16.50;;;7.27;;
65033;SDS011;51601;51.356;12.458;2023-02-15T07:14:37;17.70;;;6.90;;
65033;SDS011;51601;51.356;12.458;2023-02-15T07:19:30;24.58;;;21.73;;
65033;SDS011;51601;51.356;12.458;2023-02-15T07:24:21;18.17;;;8.35;;
65033;SDS011;51601;51.356;12.458;2023-02-15T07:29:15;24.17;;;16.30;;
65033;SDS011;51601;51.356;12.458;2023-02-15T07:34:08;17.08;;;7.13;;
65033;SDS011;51601;51.356;12.458;2023-02-15T07:39:00;24.52;;;21.52;;
65033;SDS011;51601;51.356;12.458;2023-02-15T07:43:51;35.70;;;31.13;;
65033;SDS011;51601;51.356;12.458;2023-02-15T07:48:44;49.42;;;44.13;;
65033;SDS011;51601;51.356;12.458;2023-02-15T07:58:26;211.43;;;190.67;;
65033;SDS011;51601;51.356;12.458;2023-02-15T08:03:31;13.40;;;4.55;;
65033;SDS011;51601;51.356;12.458;2023-02-15T08:08:24;13.90;;;6.18;;
65033;SDS011;51601;51.356;12.458;2023-02-15T08:13:21;97.37;;;83.83;;
65033;SDS011;51601;51.356;12.458;2023-02-15T08:18:12;16.60;;;10.20;;
65033;SDS011;51601;51.356;12.458;2023-02-15T08:23:03;12.90;;;6.70;;
65033;SDS011;51601;51.356;12.458;2023-02-15T08:27:56;10.73;;;6.23;;
65033;SDS011;51601;51.356;12.458;2023-02-15T08:32:47;11.75;;;6.88;;
65033;SDS011;51601;51.356;12.458;2023-02-15T08:37:38;11.82;;;6.93;;
65033;SDS011;51601;51.356;12.458;2023-02-15T08:42:29;11.25;;;6.60;;
65033;SDS011;51601;51.356;12.458;2023-02-15T08:47:23;11.80;;;6.17;;
65033;SDS011;51601;51.356;12.458;2023-02-15T08:52:15;12.38;;;6.65;;
65033;SDS011;51601;51.356;12.458;2023-02-15T08:57:05;10.68;;;6.57;;
65033;SDS011;51601;51.356;12.458;2023-02-15T09:01:57;11.13;;;6.47;;
65033;SDS011;51601;51.356;12.458;2023-02-15T09:06:50;10.95;;;6.38;;
65033;SDS011;51601;51.356;12.458;2023-02-15T09:11:41;12.10;;;6.10;;
65033;SDS011;51601;51.356;12.458;2023-02-15T09:16:37;11.40;;;6.30;;
65033;SDS011;51601;51.356;12.458;2023-02-15T09:21:30;10.15;;;6.25;;
65033;SDS011;51601;51.356;12.458;2023-02-15T09:26:23;10.07;;;5.90;;
65033;SDS011;51601;51.356;12.458;2023-02-15T09:31:15;10.70;;;5.70;;
65033;SDS011;51601;51.356;12.458;2023-02-15T09:36:14;10.90;;;5.20;;
65033;SDS011;51601;51.356;12.458;2023-02-15T09:41:11;9.75;;;5.78;;
65033;SDS011;51601;51.356;12.458;2023-02-15T09:46:18;10.20;;;5.28;;
65033;SDS011;51601;51.356;12.458;2023-02-15T09:51:36;12.07;;;5.53;;
65033;SDS011;51601;51.356;12.458;2023-02-15T09:56:48;10.13;;;5.47;;
65033;SDS011;51601;51.356;12.458;2023-02-15T10:01:46;10.98;;;5.85;;
65033;SDS011;51601;51.356;12.458;2023-02-15T10:06:47;10.10;;;6.00;;
65033;SDS011;51601;51.356;12.458;2023-02-15T10:11:54;10.00;;;5.28;;
65033;SDS011;51601;51.356;12.458;2023-02-15T10:17:00;9.13;;;5.28;;
65033;SDS011;51601;51.356;12.458;2023-02-15T10:22:03;9.10;;;5.07;;
65033;SDS011;51601;51.356;12.458;2023-02-15T10:27:02;10.30;;;4.93;;
65033;SDS011;51601;51.356;12.458;2023-02-15T10:32:02;10.95;;;4.75;;
65033;SDS011;51601;51.356;12.458;2023-02-15T10:37:10;8.55;;;4.70;;
65033;SDS011;51601;51.356;12.458;2023-02-15T10:42:39;7.77;;;4.87;;
65033;SDS011;51601;51.356;12.458;2023-02-15T10:47:45;8.60;;;4.80;;
65033;SDS011;51601;51.356;12.458;2023-02-15T10:52:48;10.38;;;5.60;;
65033;SDS011;51601;51.356;12.458;2023-02-15T10:57:53;12.20;;;5.57;;
65033;SDS011;51601;51.356;12.458;2023-02-15T11:02:54;8.05;;;5.32;;
65033;SDS011;51601;51.356;12.458;2023-02-15T11:07:57;9.60;;;5.35;;
65033;SDS011;51601;51.356;12.458;2023-02-15T11:12:50;8.93;;;5.40;;
65033;SDS011;51601;51.356;12.458;2023-02-15T11:17:43;10.43;;;5.20;;
65033;SDS011;51601;51.356;12.458;2023-02-15T11:22:39;10.43;;;4.93;;
65033;SDS011;51601;51.356;12.458;2023-02-15T11:27:31;10.57;;;5.18;;
65033;SDS011;51601;51.356;12.458;2023-02-15T11:32:24;8.73;;;5.00;;
65033;SDS011;51601;51.356;12.458;2023-02-15T11:37:19;8.70;;;4.82;;
65033;SDS011;51601;51.356;12.458;2023-02-15T11:42:17;9.80;;;5.13;;
65033;SDS011;51601;51.356;12.458;2023-02-15T11:47:12;10.77;;;6.83;;
65033;SDS011;51601;51.356;12.458;2023-02-15T11:52:05;11.35;;;5.15;;
65033;SDS011;51601;51.356;12.458;2023-02-15T11:56:58;10.50;;;6.20;;
65033;SDS011;51601;51.356;12.458;2023-02-15T12:01:55;8.85;;;5.53;;
65033;SDS011;51601;51.356;12.458;2023-02-15T12:06:46;13.87;;;5.80;;
65033;SDS011;51601;51.356;12.458;2023-02-15T12:11:51;11.75;;;5.80;;
65033;SDS011;51601;51.356;12.458;2023-02-15T12:16:43;11.35;;;5.30;;
65033;SDS011;51601;51.356;12.458;2023-02-15T12:21:40;9.90;;;5.30;;
65033;SDS011;51601;51.356;12.458;2023-02-15T12:26:33;8.35;;;4.75;;
65033;SDS011;51601;51.356;12.458;2023-02-15T13:40:09;9.27;;;4.43;;
65033;SDS011;51601;51.356;12.458;2023-02-15T13:44:39;8.70;;;4.00;;
65033;SDS011;51601;51.356;12.458;2023-02-15T13:49:12;9.48;;;4.32;;
65033;SDS011;51601;51.356;12.458;2023-02-15T13:53:43;8.63;;;4.00;;
65033;SDS011;51601;51.356;12.458;2023-02-15T14:03:27;9.48;;;4.10;;
65033;SDS011;51601;51.356;12.458;2023-02-15T14:08:04;8.57;;;3.53;;
65033;SDS011;51601;51.356;12.458;2023-02-15T14:12:36;7.80;;;3.73;;
65033;SDS011;51601;51.356;12.458;2023-02-15T14:17:05;7.22;;;3.47;;
65033;SDS011;51601;51.356;12.458;2023-02-15T14:21:32;8.13;;;4.10;;
65033;SDS011;51601;51.356;12.458;2023-02-15T14:25:57;7.90;;;3.80;;
65033;SDS011;51601;51.356;12.458;2023-02-15T14:30:20;7.43;;;3.37;;
65033;SDS011;51601;51.356;12.458;2023-02-15T14:34:44;9.30;;;3.60;;
65033;SDS011;51601;51.356;12.458;2023-02-15T14:39:11;9.23;;;3.55;;
65033;SDS011;51601;51.356;12.458;2023-02-15T14:44:00;9.03;;;3.70;;
65033;SDS011;51601;51.356;12.458;2023-02-15T14:48:28;8.35;;;3.50;;
65033;SDS011;51601;51.356;12.458;2023-02-15T14:57:37;6.53;;;3.00;;
65033;SDS011;51601;51.356;12.458;2023-02-15T15:01:55;6.65;;;3.08;;
65033;SDS011;51601;51.356;12.458;2023-02-15T15:06:23;7.70;;;3.17;;
65033;SDS011;51601;51.356;12.458;2023-02-15T15:10:51;8.13;;;3.40;;
65033;SDS011;51601;51.356;12.458;2023-02-15T15:15:33;7.13;;;3.20;;
65033;SDS011;51601;51.356;12.458;2023-02-15T15:20:36;8.35;;;3.10;;
65033;SDS011;51601;51.356;12.458;2023-02-15T15:25:12;7.00;;;3.15;;
65033;SDS011;51601;51.356;12.458;2023-02-15T15:35:09;8.77;;;3.88;;
65033;SDS011;51601;51.356;12.458;2023-02-15T15:50:12;13.45;;;3.47;;
65033;SDS011;51601;51.356;12.458;2023-02-15T15:54:39;10.27;;;3.30;;
65033;SDS011;51601;51.356;12.458;2023-02-15T15:59:06;8.15;;;3.90;;
65033;SDS011;51601;51.356;12.458;2023-02-15T16:03:36;8.90;;;4.07;;
65033;SDS011;51601;51.356;12.458;2023-02-15T16:08:04;11.02;;;4.00;;
65033;SDS011;51601;51.356;12.458;2023-02-15T16:12:30;11.02;;;4.78;;
65033;SDS011;51601;51.356;12.458;2023-02-15T16:16:57;11.43;;;5.13;;
65033;SDS011;51601;51.356;12.458;2023-02-15T16:21:24;8.30;;;4.03;;
65033;SDS011;51601;51.356;12.458;2023-02-15T16:25:55;10.85;;;4.15;;
65033;SDS011;51601;51.356;12.458;2023-02-15T16:30:28;10.27;;;3.87;;
65033;SDS011;51601;51.356;12.458;2023-02-15T16:34:54;9.95;;;4.18;;
65033;SDS011;51601;51.356;12.458;2023-02-15T16:39:19;9.80;;;4.70;;
65033;SDS011;51601;51.356;12.458;2023-02-15T16:43:48;10.68;;;4.20;;
65033;SDS011;51601;51.356;12.458;2023-02-15T16:48:16;9.43;;;4.40;;
65033;SDS011;51601;51.356;12.458;2023-02-15T16:52:44;13.20;;;4.53;;
65033;SDS011;51601;51.356;12.458;2023-02-15T16:57:14;11.32;;;4.65;;
65033;SDS011;51601;51.356;12.458;2023-02-15T17:01:43;11.80;;;5.53;;
65033;SDS011;51601;51.356;12.458;2023-02-15T17:06:18;11.23;;;4.72;;
65033;SDS011;51601;51.356;12.458;2023-02-15T17:10:45;13.50;;;5.70;;
65033;SDS011;51601;51.356;12.458;2023-02-15T17:15:25;13.33;;;6.83;;
65033;SDS011;51601;51.356;12.458;2023-02-15T17:19:53;17.33;;;6.03;;
65033;SDS011;51601;51.356;12.458;2023-02-15T17:24:31;12.65;;;6.80;;
65033;SDS011;51601;51.356;12.458;2023-02-15T17:28:55;15.15;;;6.93;;
65033;SDS011;51601;51.356;12.458;2023-02-15T17:33:19;16.20;;;7.37;;
65033;SDS011;51601;51.356;12.458;2023-02-15T17:37:49;13.80;;;6.47;;
65033;SDS011;51601;51.356;12.458;2023-02-15T17:42:13;16.08;;;7.53;;
65033;SDS011;51601;51.356;12.458;2023-02-15T17:46:38;19.60;;;7.73;;
65033;SDS011;51601;51.356;12.458;2023-02-15T17:51:03;17.77;;;7.78;;
65033;SDS011;51601;51.356;12.458;2023-02-15T17:55:34;16.65;;;8.00;;
65033;SDS011;51601;51.356;12.458;2023-02-15T18:00:00;19.80;;;7.83;;
65033;SDS011;51601;51.356;12.458;2023-02-15T18:04:42;16.25;;;8.23;;
65033;SDS011;51601;51.356;12.458;2023-02-15T18:09:25;17.25;;;7.55;;
65033;SDS011;51601;51.356;12.458;2023-02-15T18:14:08;15.45;;;7.40;;
65033;SDS011;51601;51.356;12.458;2023-02-15T18:18:33;13.77;;;7.07;;
65033;SDS011;51601;51.356;12.458;2023-02-15T18:22:57;18.77;;;7.80;;
65033;SDS011;51601;51.356;12.458;2023-02-15T18:27:23;14.35;;;6.53;;
65033;SDS011;51601;51.356;12.458;2023-02-15T18:31:50;15.37;;;7.50;;
65033;SDS011;51601;51.356;12.458;2023-02-15T18:36:17;44.83;;;35.92;;
65033;SDS011;51601;51.356;12.458;2023-02-15T18:40:46;15.75;;;7.57;;
65033;SDS011;51601;51.356;12.458;2023-02-15T18:45:13;171.80;;;152.70;;
65033;SDS011;51601;51.356;12.458;2023-02-15T18:49:40;220.95;;;191.20;;
65033;SDS011;51601;51.356;12.458;2023-02-15T18:54:04;258.42;;;229.65;;
65033;SDS011;51601;51.356;12.458;2023-02-15T18:58:36;20.17;;;11.25;;
65033;SDS011;51601;51.356;12.458;2023-02-15T19:03:01;15.77;;;6.63;;
65033;SDS011;51601;51.356;12.458;2023-02-15T19:07:33;20.80;;;8.23;;
65033;SDS011;51601;51.356;12.458;2023-02-15T19:11:52;21.02;;;9.40;;
65033;SDS011;51601;51.356;12.458;2023-02-15T19:16:26;19.43;;;10.83;;
65033;SDS011;51601;51.356;12.458;2023-02-15T19:20:51;21.38;;;10.95;;
65033;SDS011;51601;51.356;12.458;2023-02-15T19:25:18;21.73;;;11.15;;
65033;SDS011;51601;51.356;12.458;2023-02-15T19:29:46;19.50;;;10.30;;
65033;SDS011;51601;51.356;12.458;2023-02-15T19:34:12;20.33;;;10.55;;
65033;SDS011;51601;51.356;12.458;2023-02-15T19:38:41;21.08;;;11.38;;
65033;SDS011;51601;51.356;12.458;2023-02-15T19:43:09;21.35;;;11.27;;
65033;SDS011;51601;51.356;12.458;2023-02-15T19:47:39;20.93;;;11.40;;
65033;SDS011;51601;51.356;12.458;2023-02-15T19:52:04;23.05;;;11.68;;
65033;SDS011;51601;51.356;12.458;2023-02-15T19:56:37;18.55;;;9.98;;
65033;SDS011;51601;51.356;12.458;2023-02-15T20:01:03;191.77;;;158.63;;
65033;SDS011;51601;51.356;12.458;2023-02-15T20:05:28;236.48;;;190.50;;
65033;SDS011;51601;51.356;12.458;2023-02-15T20:09:55;298.23;;;230.23;;
65033;SDS011;51601;51.356;12.458;2023-02-15T20:14:20;321.10;;;255.13;;
65033;SDS011;51601;51.356;12.458;2023-02-15T20:18:47;326.38;;;248.38;;
65033;SDS011;51601;51.356;12.458;2023-02-15T20:23:16;280.05;;;236.30;;
65033;SDS011;51601;51.356;12.458;2023-02-15T20:27:42;333.70;;;259.23;;
65033;SDS011;51601;51.356;12.458;2023-02-15T20:32:07;308.20;;;229.03;;
65033;SDS011;51601;51.356;12.458;2023-02-15T20:36:33;31.27;;;16.35;;
65033;SDS011;51601;51.356;12.458;2023-02-15T20:40:58;14.98;;;7.13;;
65033;SDS011;51601;51.356;12.458;2023-02-15T20:45:40;14.43;;;6.83;;
65033;SDS011;51601;51.356;12.458;2023-02-15T20:50:05;113.32;;;101.55;;
65033;SDS011;51601;51.356;12.458;2023-02-15T20:54:32;135.45;;;121.28;;
65033;SDS011;51601;51.356;12.458;2023-02-15T20:58:58;18.90;;;9.90;;
65033;SDS011;51601;51.356;12.458;2023-02-15T21:03:23;14.35;;;7.43;;
65033;SDS011;51601;51.356;12.458;2023-02-15T21:07:53;12.27;;;6.07;;
65033;SDS011;51601;51.356;12.458;2023-02-15T21:12:18;14.23;;;6.53;;
65033;SDS011;51601;51.356;12.458;2023-02-15T21:16:44;14.40;;;6.30;;
65033;SDS011;51601;51.356;12.458;2023-02-15T21:21:14;16.95;;;7.63;;
65033;SDS011;51601;51.356;12.458;2023-02-15T21:25:45;18.38;;;8.07;;
65033;SDS011;51601;51.356;12.458;2023-02-15T21:30:17;13.10;;;5.43;;
65033;SDS011;51601;51.356;12.458;2023-02-15T21:34:45;14.85;;;7.53;;
65033;SDS011;51601;51.356;12.458;2023-02-15T21:39:13;18.83;;;7.65;;
65033;SDS011;51601;51.356;12.458;2023-02-15T21:43:40;17.80;;;7.67;;
65033;SDS011;51601;51.356;12.458;2023-02-15T21:48:24;16.13;;;7.00;;
65033;SDS011;51601;51.356;12.458;2023-02-15T21:52:48;15.48;;;7.03;;
65033;SDS011;51601;51.356;12.458;2023-02-15T21:57:12;16.60;;;7.07;;
65033;SDS011;51601;51.356;12.458;2023-02-15T22:01:37;16.27;;;6.37;;
65033;SDS011;51601;51.356;12.458;2023-02-15T22:06:05;15.65;;;7.13;;
65033;SDS011;51601;51.356;12.458;2023-02-15T22:10:29;17.88;;;8.00;;
65033;SDS011;51601;51.356;12.458;2023-02-15T22:14:56;14.57;;;6.47;;
65033;SDS011;51601;51.356;12.458;2023-02-15T22:19:20;18.30;;;8.45;;
65033;SDS011;51601;51.356;12.458;2023-02-15T22:23:46;21.52;;;9.25;;
65033;SDS011;51601;51.356;12.458;2023-02-15T22:28:11;14.57;;;6.93;;
65033;SDS011;51601;51.356;12.458;2023-02-15T22:32:38;8.88;;;3.53;;
65033;SDS011;51601;51.356;12.458;2023-02-15T22:37:04;7.85;;;3.15;;
65033;SDS011;51601;51.356;12.458;2023-02-15T22:41:30;9.48;;;4.18;;
65033;SDS011;51601;51.356;12.458;2023-02-15T22:45:55;18.43;;;7.93;;
65033;SDS011;51601;51.356;12.458;2023-02-15T22:50:23;15.38;;;6.95;;
65033;SDS011;51601;51.356;12.458;2023-02-15T22:54:49;11.38;;;5.68;;
65033;SDS011;51601;51.356;12.458;2023-02-15T22:59:16;17.37;;;7.47;;
65033;SDS011;51601;51.356;12.458;2023-02-15T23:03:45;17.95;;;6.75;;
65033;SDS011;51601;51.356;12.458;2023-02-15T23:08:10;17.17;;;7.97;;
65033;SDS011;51601;51.356;12.458;2023-02-15T23:12:35;16.23;;;6.90;;
65033;SDS011;51601;51.356;12.458;2023-02-15T23:17:24;17.95;;;8.30;;
65033;SDS011;51601;51.356;12.458;2023-02-15T23:21:48;12.23;;;6.10;;
65033;SDS011;51601;51.356;12.458;2023-02-15T23:26:14;84.50;;;75.25;;
65033;SDS011;51601;51.356;12.458;2023-02-15T23:30:39;35.10;;;31.70;;
65033;SDS011;51601;51.356;12.458;2023-02-15T23:35:08;82.75;;;75.70;;
65033;SDS011;51601;51.356;12.458;2023-02-15T23:39:35;13.77;;;7.40;;
65033;SDS011;51601;51.356;12.458;2023-02-15T23:44:17;12.13;;;5.20;;
65033;SDS011;51601;51.356;12.458;2023-02-15T23:48:42;14.52;;;8.52;;
65033;SDS011;51601;51.356;12.458;2023-02-15T23:53:09;52.22;;;43.42;;
65033;SDS011;51601;51.356;12.458;2023-02-15T23:57:33;38.70;;;32.87;;
